sensor_id;sensor_type;location;lat;lon;timestamp;temperature;humidity
4725;DHT22;2376;53.544;10.226;2022-11-11T00:02:08;15.30;99.90
4725;DHT22;2376;53.544;10.226;2022-11-11T00:04:35;15.30;99.90
4725;DHT22;2376;53.544;10.226;2022-11-11T00:07:02;15.30;99.90
4725;DHT22;2376;53.544;10.226;2022-11-11T00:09:28;15.30;99.90
4725;DHT22;2376;53.544;10.226;2022-11-11T00:11:55;15.30;99.90
4725;DHT22;2376;53.544;10.226;2022-11-11T00:14:22;15.30;99.90
4725;DHT22;2376;53.544;10.226;2022-11-11T00:16:49;15.40;99.90
4725;DHT22;2376;53.544;10.226;2022-11-11T00:19:35;15.40;99.90
4725;DHT22;2376;53.544;10.226;2022-11-11T00:22:20;15.20;99.90
4725;DHT22;2376;53.544;10.226;2022-11-11T00:25:04;15.10;99.90
4725;DHT22;2376;53.544;10.226;2022-11-11T00:27:31;15.10;99.90
4725;DHT22;2376;53.544;10.226;2022-11-11T00:29:58;15.10;99.90
4725;DHT22;2376;53.544;10.226;2022-11-11T00:32:25;15.00;99.90
4725;DHT22;2376;53.544;10.226;2022-11-11T00:34:55;15.10;99.90
4725;DHT22;2376;53.544;10.226;2022-11-11T00:37:41;15.10;99.90
4725;DHT22;2376;53.544;10.226;2022-11-11T00:40:09;15.20;99.90
4725;DHT22;2376;53.544;10.226;2022-11-11T00:42:36;15.30;99.90
4725;DHT22;2376;53.544;10.226;2022-11-11T00:45:04;15.20;99.90
4725;DHT22;2376;53.544;10.226;2022-11-11T00:47:31;15.30;99.90
4725;DHT22;2376;53.544;10.226;2022-11-11T00:50:18;15.30;99.90
4725;DHT22;2376;53.544;10.226;2022-11-11T00:53:07;15.30;99.90
4725;DHT22;2376;53.544;10.226;2022-11-11T00:55:34;15.20;99.90
4725;DHT22;2376;53.544;10.226;2022-11-11T00:58:00;15.20;99.90
4725;DHT22;2376;53.544;10.226;2022-11-11T01:00:27;15.20;99.90
4725;DHT22;2376;53.544;10.226;2022-11-11T01:02:54;15.20;99.90
4725;DHT22;2376;53.544;10.226;2022-11-11T01:05:21;15.10;99.90
4725;DHT22;2376;53.544;10.226;2022-11-11T01:07:48;15.10;99.90
4725;DHT22;2376;53.544;10.226;2022-11-11T01:10:16;15.00;99.90
4725;DHT22;2376;53.544;10.226;2022-11-11T01:13:03;15.00;99.90
4725;DHT22;2376;53.544;10.226;2022-11-11T01:15:39;15.00;99.90
4725;DHT22;2376;53.544;10.226;2022-11-11T01:18:07;15.00;99.90
4725;DHT22;2376;53.544;10.226;2022-11-11T01:20:36;15.00;99.90
4725;DHT22;2376;53.544;10.226;2022-11-11T01:23:04;15.00;99.90
4725;DHT22;2376;53.544;10.226;2022-11-11T01:25:32;15.10;99.90
4725;DHT22;2376;53.544;10.226;2022-11-11T01:28:00;15.00;99.90
4725;DHT22;2376;53.544;10.226;2022-11-11T01:30:26;15.10;99.90
4725;DHT22;2376;53.544;10.226;2022-11-11T01:32:53;15.10;99.90
4725;DHT22;2376;53.544;10.226;2022-11-11T01:35:20;15.10;99.90
4725;DHT22;2376;53.544;10.226;2022-11-11T01:37:48;15.10;99.90
4725;DHT22;2376;53.544;10.226;2022-11-11T01:40:15;15.10;99.90
4725;DHT22;2376;53.544;10.226;2022-11-11T01:42:47;15.20;99.90
4725;DHT22;2376;53.544;10.226;2022-11-11T01:45:52;15.10;99.90
4725;DHT22;2376;53.544;10.226;2022-11-11T01:48:25;15.10;99.90
4725;DHT22;2376;53.544;10.226;2022-11-11T01:51:16;15.20;99.90
4725;DHT22;2376;53.544;10.226;2022-11-11T01:53:53;15.10;99.90
4725;DHT22;2376;53.544;10.226;2022-11-11T01:56:21;15.10;99.90
4725;DHT22;2376;53.544;10.226;2022-11-11T01:58:49;15.10;99.90
4725;DHT22;2376;53.544;10.226;2022-11-11T02:01:17;15.20;99.90
4725;DHT22;2376;53.544;10.226;2022-11-11T02:03:45;15.10;99.90
4725;DHT22;2376;53.544;10.226;2022-11-11T02:06:33;15.10;99.90
4725;DHT22;2376;53.544;10.226;2022-11-11T02:09:02;15.10;99.90
4725;DHT22;2376;53.544;10.226;2022-11-11T02:11:31;14.90;99.90
4725;DHT22;2376;53.544;10.226;2022-11-11T02:14:16;14.90;99.90
4725;DHT22;2376;53.544;10.226;2022-11-11T02:17:01;14.90;99.90
4725;DHT22;2376;53.544;10.226;2022-11-11T02:19:37;14.90;99.90
4725;DHT22;2376;53.544;10.226;2022-11-11T02:22:10;14.90;99.90
4725;DHT22;2376;53.544;10.226;2022-11-11T02:24:40;14.90;99.90
4725;DHT22;2376;53.544;10.226;2022-11-11T02:27:10;15.00;99.90
4725;DHT22;2376;53.544;10.226;2022-11-11T02:29:39;15.00;99.90
4725;DHT22;2376;53.544;10.226;2022-11-11T02:32:06;15.00;99.90
4725;DHT22;2376;53.544;10.226;2022-11-11T02:34:33;15.10;99.90
4725;DHT22;2376;53.544;10.226;2022-11-11T02:37:02;15.10;99.90
4725;DHT22;2376;53.544;10.226;2022-11-11T02:39:30;15.10;99.90
4725;DHT22;2376;53.544;10.226;2022-11-11T02:41:59;15.00;99.90
4725;DHT22;2376;53.544;10.226;2022-11-11T02:44:30;15.10;99.90
4725;DHT22;2376;53.544;10.226;2022-11-11T02:46:57;15.10;99.90
4725;DHT22;2376;53.544;10.226;2022-11-11T02:49:24;15.00;99.90
4725;DHT22;2376;53.544;10.226;2022-11-11T02:51:50;15.00;99.90
4725;DHT22;2376;53.544;10.226;2022-11-11T02:54:17;15.10;99.90
4725;DHT22;2376;53.544;10.226;2022-11-11T02:56:44;15.00;99.90
4725;DHT22;2376;53.544;10.226;2022-11-11T02:59:29;14.90;99.90
4725;DHT22;2376;53.544;10.226;2022-11-11T03:01:56;14.90;99.90
4725;DHT22;2376;53.544;10.226;2022-11-11T03:04:22;14.90;99.90
4725;DHT22;2376;53.544;10.226;2022-11-11T03:06:49;15.00;99.90
4725;DHT22;2376;53.544;10.226;2022-11-11T03:09:16;15.10;99.90
4725;DHT22;2376;53.544;10.226;2022-11-11T03:11:43;15.00;99.90
4725;DHT22;2376;53.544;10.226;2022-11-11T03:14:09;15.00;99.90
4725;DHT22;2376;53.544;10.226;2022-11-11T03:16:37;15.00;99.90
4725;DHT22;2376;53.544;10.226;2022-11-11T03:19:21;14.90;99.90
4725;DHT22;2376;53.544;10.226;2022-11-11T03:21:48;15.00;99.90
4725;DHT22;2376;53.544;10.226;2022-11-11T03:24:14;14.90;99.90
4725;DHT22;2376;53.544;10.226;2022-11-11T03:26:40;14.70;99.90
4725;DHT22;2376;53.544;10.226;2022-11-11T03:29:06;14.70;99.90
4725;DHT22;2376;53.544;10.226;2022-11-11T03:31:33;14.70;99.90
4725;DHT22;2376;53.544;10.226;2022-11-11T03:34:01;14.70;99.90
4725;DHT22;2376;53.544;10.226;2022-11-11T03:36:41;14.70;99.90
4725;DHT22;2376;53.544;10.226;2022-11-11T03:39:22;14.70;99.90
4725;DHT22;2376;53.544;10.226;2022-11-11T03:41:48;14.70;99.90
4725;DHT22;2376;53.544;10.226;2022-11-11T03:44:15;14.70;99.90
4725;DHT22;2376;53.544;10.226;2022-11-11T03:46:42;14.80;99.90
4725;DHT22;2376;53.544;10.226;2022-11-11T03:49:10;14.80;99.90
4725;DHT22;2376;53.544;10.226;2022-11-11T03:51:37;14.80;99.90
4725;DHT22;2376;53.544;10.226;2022-11-11T03:54:03;14.90;99.90
4725;DHT22;2376;53.544;10.226;2022-11-11T03:56:30;14.90;99.90
4725;DHT22;2376;53.544;10.226;2022-11-11T03:58:57;14.90;99.90
4725;DHT22;2376;53.544;10.226;2022-11-11T04:01:24;14.80;99.90
4725;DHT22;2376;53.544;10.226;2022-11-11T04:04:04;14.80;99.90
4725;DHT22;2376;53.544;10.226;2022-11-11T04:06:49;14.70;99.90
4725;DHT22;2376;53.544;10.226;2022-11-11T04:09:34;14.80;99.90
4725;DHT22;2376;53.544;10.226;2022-11-11T04:12:18;14.80;99.90
4725;DHT22;2376;53.544;10.226;2022-11-11T04:14:45;14.80;99.90
4725;DHT22;2376;53.544;10.226;2022-11-11T04:17:29;14.70;99.90
4725;DHT22;2376;53.544;10.226;2022-11-11T04:19:56;14.60;99.90
4725;DHT22;2376;53.544;10.226;2022-11-11T04:22:42;14.70;99.90
4725;DHT22;2376;53.544;10.226;2022-11-11T04:25:08;14.70;99.90
4725;DHT22;2376;53.544;10.226;2022-11-11T04:27:55;14.70;99.90
4725;DHT22;2376;53.544;10.226;2022-11-11T04:30:36;14.80;99.90
4725;DHT22;2376;53.544;10.226;2022-11-11T04:33:02;14.80;99.90
4725;DHT22;2376;53.544;10.226;2022-11-11T04:35:29;14.80;99.90
4725;DHT22;2376;53.544;10.226;2022-11-11T04:37:57;14.90;99.90
4725;DHT22;2376;53.544;10.226;2022-11-11T04:40:38;14.90;99.90
4725;DHT22;2376;53.544;10.226;2022-11-11T04:43:22;14.90;99.90
4725;DHT22;2376;53.544;10.226;2022-11-11T04:45:49;14.90;99.90
4725;DHT22;2376;53.544;10.226;2022-11-11T04:48:14;14.90;99.90
4725;DHT22;2376;53.544;10.226;2022-11-11T04:50:43;14.80;99.90
4725;DHT22;2376;53.544;10.226;2022-11-11T04:53:12;14.80;99.90
4725;DHT22;2376;53.544;10.226;2022-11-11T04:55:40;14.70;99.90
4725;DHT22;2376;53.544;10.226;2022-11-11T04:58:27;14.70;99.90
4725;DHT22;2376;53.544;10.226;2022-11-11T05:00:54;14.60;99.90
4725;DHT22;2376;53.544;10.226;2022-11-11T05:03:20;14.50;99.90
4725;DHT22;2376;53.544;10.226;2022-11-11T05:05:49;14.50;99.90
4725;DHT22;2376;53.544;10.226;2022-11-11T05:08:37;14.60;99.90
4725;DHT22;2376;53.544;10.226;2022-11-11T05:11:23;14.60;99.90
4725;DHT22;2376;53.544;10.226;2022-11-11T05:13:51;14.60;99.90
4725;DHT22;2376;53.544;10.226;2022-11-11T05:16:37;14.60;99.90
4725;DHT22;2376;53.544;10.226;2022-11-11T05:19:21;14.60;99.90
4725;DHT22;2376;53.544;10.226;2022-11-11T05:22:10;14.60;99.90
4725;DHT22;2376;53.544;10.226;2022-11-11T05:24:39;14.50;99.90
4725;DHT22;2376;53.544;10.226;2022-11-11T05:27:23;14.50;99.90
4725;DHT22;2376;53.544;10.226;2022-11-11T05:29:51;14.60;99.90
4725;DHT22;2376;53.544;10.226;2022-11-11T05:32:19;14.50;99.90
4725;DHT22;2376;53.544;10.226;2022-11-11T05:34:46;14.50;99.90
4725;DHT22;2376;53.544;10.226;2022-11-11T05:37:14;14.50;99.90
4725;DHT22;2376;53.544;10.226;2022-11-11T05:39:42;14.40;99.90
4725;DHT22;2376;53.544;10.226;2022-11-11T05:42:10;14.30;99.90
4725;DHT22;2376;53.544;10.226;2022-11-11T05:44:36;14.40;99.90
4725;DHT22;2376;53.544;10.226;2022-11-11T05:47:03;14.30;99.90
4725;DHT22;2376;53.544;10.226;2022-11-11T05:49:30;14.30;99.90
4725;DHT22;2376;53.544;10.226;2022-11-11T05:51:57;14.30;99.90
4725;DHT22;2376;53.544;10.226;2022-11-11T05:54:24;14.30;99.90
4725;DHT22;2376;53.544;10.226;2022-11-11T05:56:52;14.30;99.90
4725;DHT22;2376;53.544;10.226;2022-11-11T05:59:18;14.30;99.90
4725;DHT22;2376;53.544;10.226;2022-11-11T06:01:45;14.30;99.90
4725;DHT22;2376;53.544;10.226;2022-11-11T06:04:12;14.30;99.90
4725;DHT22;2376;53.544;10.226;2022-11-11T06:06:38;14.40;99.90
4725;DHT22;2376;53.544;10.226;2022-11-11T06:09:05;14.40;99.90
4725;DHT22;2376;53.544;10.226;2022-11-11T06:11:32;14.40;99.90
4725;DHT22;2376;53.544;10.226;2022-11-11T06:14:00;14.30;99.90
4725;DHT22;2376;53.544;10.226;2022-11-11T06:16:27;14.40;99.90
4725;DHT22;2376;53.544;10.226;2022-11-11T06:18:54;14.40;99.90
4725;DHT22;2376;53.544;10.226;2022-11-11T06:21:20;14.30;99.90
4725;DHT22;2376;53.544;10.226;2022-11-11T06:23:47;14.30;99.90
4725;DHT22;2376;53.544;10.226;2022-11-11T06:26:14;14.30;99.90
4725;DHT22;2376;53.544;10.226;2022-11-11T06:28:42;14.30;99.90
4725;DHT22;2376;53.544;10.226;2022-11-11T06:31:12;14.30;99.90
4725;DHT22;2376;53.544;10.226;2022-11-11T06:33:39;14.30;99.90
4725;DHT22;2376;53.544;10.226;2022-11-11T06:36:07;14.30;99.90
4725;DHT22;2376;53.544;10.226;2022-11-11T06:38:34;14.30;99.90
4725;DHT22;2376;53.544;10.226;2022-11-11T06:41:00;14.20;99.90
4725;DHT22;2376;53.544;10.226;2022-11-11T06:43:27;14.20;99.90
4725;DHT22;2376;53.544;10.226;2022-11-11T06:45:55;14.20;99.90
4725;DHT22;2376;53.544;10.226;2022-11-11T06:48:24;14.20;99.90
4725;DHT22;2376;53.544;10.226;2022-11-11T06:50:52;14.10;99.90
4725;DHT22;2376;53.544;10.226;2022-11-11T06:53:19;14.10;99.90
4725;DHT22;2376;53.544;10.226;2022-11-11T06:55:46;14.10;99.90
4725;DHT22;2376;53.544;10.226;2022-11-11T06:58:15;14.20;99.90
4725;DHT22;2376;53.544;10.226;2022-11-11T07:00:43;14.20;99.90
4725;DHT22;2376;53.544;10.226;2022-11-11T07:03:11;14.20;99.90
4725;DHT22;2376;53.544;10.226;2022-11-11T07:05:40;14.30;99.90
4725;DHT22;2376;53.544;10.226;2022-11-11T07:08:08;14.30;99.90
4725;DHT22;2376;53.544;10.226;2022-11-11T07:10:37;14.30;99.90
4725;DHT22;2376;53.544;10.226;2022-11-11T07:13:04;14.40;99.90
4725;DHT22;2376;53.544;10.226;2022-11-11T07:15:31;14.30;99.90
4725;DHT22;2376;53.544;10.226;2022-11-11T07:17:59;14.30;99.90
4725;DHT22;2376;53.544;10.226;2022-11-11T07:20:25;14.30;99.90
4725;DHT22;2376;53.544;10.226;2022-11-11T07:22:53;14.30;99.90
4725;DHT22;2376;53.544;10.226;2022-11-11T07:25:20;14.30;99.90
4725;DHT22;2376;53.544;10.226;2022-11-11T07:27:47;14.20;99.90
4725;DHT22;2376;53.544;10.226;2022-11-11T07:30:14;14.30;99.90
4725;DHT22;2376;53.544;10.226;2022-11-11T07:32:43;14.30;99.90
4725;DHT22;2376;53.544;10.226;2022-11-11T07:35:11;14.20;99.90
4725;DHT22;2376;53.544;10.226;2022-11-11T07:37:39;14.30;99.90
4725;DHT22;2376;53.544;10.226;2022-11-11T07:40:09;14.30;99.90
4725;DHT22;2376;53.544;10.226;2022-11-11T07:42:37;14.30;99.90
4725;DHT22;2376;53.544;10.226;2022-11-11T07:45:05;14.30;99.90
4725;DHT22;2376;53.544;10.226;2022-11-11T07:47:32;14.30;99.90
4725;DHT22;2376;53.544;10.226;2022-11-11T07:50:00;14.30;99.90
4725;DHT22;2376;53.544;10.226;2022-11-11T07:52:26;14.20;99.90
4725;DHT22;2376;53.544;10.226;2022-11-11T07:54:53;14.20;99.90
4725;DHT22;2376;53.544;10.226;2022-11-11T07:57:21;14.20;99.90
4725;DHT22;2376;53.544;10.226;2022-11-11T07:59:48;14.20;99.90
4725;DHT22;2376;53.544;10.226;2022-11-11T08:02:15;14.20;99.90
4725;DHT22;2376;53.544;10.226;2022-11-11T08:04:42;14.20;99.90
4725;DHT22;2376;53.544;10.226;2022-11-11T08:07:10;14.20;99.90
4725;DHT22;2376;53.544;10.226;2022-11-11T08:09:37;14.20;99.90
4725;DHT22;2376;53.544;10.226;2022-11-11T08:12:03;14.30;99.90
4725;DHT22;2376;53.544;10.226;2022-11-11T08:14:49;14.30;99.90
4725;DHT22;2376;53.544;10.226;2022-11-11T08:17:16;14.30;99.90
4725;DHT22;2376;53.544;10.226;2022-11-11T08:19:43;14.30;99.90
4725;DHT22;2376;53.544;10.226;2022-11-11T08:22:09;14.20;99.90
4725;DHT22;2376;53.544;10.226;2022-11-11T08:24:36;14.30;99.90
4725;DHT22;2376;53.544;10.226;2022-11-11T08:27:03;14.30;99.90
4725;DHT22;2376;53.544;10.226;2022-11-11T08:29:29;14.30;99.90
4725;DHT22;2376;53.544;10.226;2022-11-11T08:31:57;14.30;99.90
4725;DHT22;2376;53.544;10.226;2022-11-11T08:34:24;14.30;99.90
4725;DHT22;2376;53.544;10.226;2022-11-11T08:36:51;14.30;99.90
4725;DHT22;2376;53.544;10.226;2022-11-11T08:39:17;14.40;99.90
4725;DHT22;2376;53.544;10.226;2022-11-11T08:41:44;14.40;99.90
4725;DHT22;2376;53.544;10.226;2022-11-11T08:44:10;14.40;99.90
4725;DHT22;2376;53.544;10.226;2022-11-11T08:46:37;14.40;99.90
4725;DHT22;2376;53.544;10.226;2022-11-11T08:49:05;14.40;99.90
4725;DHT22;2376;53.544;10.226;2022-11-11T08:51:33;14.40;99.90
4725;DHT22;2376;53.544;10.226;2022-11-11T08:54:00;14.40;99.90
4725;DHT22;2376;53.544;10.226;2022-11-11T08:56:26;14.40;99.90
4725;DHT22;2376;53.544;10.226;2022-11-11T08:58:53;14.50;99.90
4725;DHT22;2376;53.544;10.226;2022-11-11T09:01:19;14.40;99.90
4725;DHT22;2376;53.544;10.226;2022-11-11T09:03:46;14.40;99.90
4725;DHT22;2376;53.544;10.226;2022-11-11T09:06:14;14.40;99.90
4725;DHT22;2376;53.544;10.226;2022-11-11T09:08:42;14.40;99.90
4725;DHT22;2376;53.544;10.226;2022-11-11T09:11:09;14.40;99.90
4725;DHT22;2376;53.544;10.226;2022-11-11T09:13:36;14.40;99.90
4725;DHT22;2376;53.544;10.226;2022-11-11T09:16:02;14.50;99.90
4725;DHT22;2376;53.544;10.226;2022-11-11T09:18:29;14.50;99.90
4725;DHT22;2376;53.544;10.226;2022-11-11T09:20:57;14.50;99.90
4725;DHT22;2376;53.544;10.226;2022-11-11T09:23:25;14.50;99.90
4725;DHT22;2376;53.544;10.226;2022-11-11T09:25:52;14.50;99.90
4725;DHT22;2376;53.544;10.226;2022-11-11T09:28:19;14.50;99.90
4725;DHT22;2376;53.544;10.226;2022-11-11T09:30:45;14.30;99.90
4725;DHT22;2376;53.544;10.226;2022-11-11T09:33:12;14.40;99.90
4725;DHT22;2376;53.544;10.226;2022-11-11T09:35:41;14.50;99.90
4725;DHT22;2376;53.544;10.226;2022-11-11T09:38:08;14.60;99.90
4725;DHT22;2376;53.544;10.226;2022-11-11T09:40:45;14.40;99.90
4725;DHT22;2376;53.544;10.226;2022-11-11T09:43:23;14.50;99.90
4725;DHT22;2376;53.544;10.226;2022-11-11T09:46:00;14.50;99.90
4725;DHT22;2376;53.544;10.226;2022-11-11T09:48:45;14.60;99.90
4725;DHT22;2376;53.544;10.226;2022-11-11T09:51:19;14.50;99.90
4725;DHT22;2376;53.544;10.226;2022-11-11T09:53:49;14.60;99.90
4725;DHT22;2376;53.544;10.226;2022-11-11T09:56:19;14.60;99.90
4725;DHT22;2376;53.544;10.226;2022-11-11T09:58:49;14.60;99.90
4725;DHT22;2376;53.544;10.226;2022-11-11T10:01:20;14.70;99.90
4725;DHT22;2376;53.544;10.226;2022-11-11T10:03:53;14.60;99.90
4725;DHT22;2376;53.544;10.226;2022-11-11T10:06:26;14.70;99.90
4725;DHT22;2376;53.544;10.226;2022-11-11T10:08:57;14.70;99.90
4725;DHT22;2376;53.544;10.226;2022-11-11T10:11:45;14.60;99.90
4725;DHT22;2376;53.544;10.226;2022-11-11T10:14:13;14.60;99.90
4725;DHT22;2376;53.544;10.226;2022-11-11T10:16:53;14.60;99.90
4725;DHT22;2376;53.544;10.226;2022-11-11T10:19:29;14.50;99.90
4725;DHT22;2376;53.544;10.226;2022-11-11T10:21:58;14.60;99.90
4725;DHT22;2376;53.544;10.226;2022-11-11T10:24:28;14.70;99.90
4725;DHT22;2376;53.544;10.226;2022-11-11T10:26:59;14.70;99.90
4725;DHT22;2376;53.544;10.226;2022-11-11T10:29:29;14.70;99.90
4725;DHT22;2376;53.544;10.226;2022-11-11T10:32:02;14.60;99.90
4725;DHT22;2376;53.544;10.226;2022-11-11T10:34:32;14.70;99.90
4725;DHT22;2376;53.544;10.226;2022-11-11T10:37:00;14.70;99.90
4725;DHT22;2376;53.544;10.226;2022-11-11T10:39:36;14.70;99.90
4725;DHT22;2376;53.544;10.226;2022-11-11T10:42:14;14.70;99.90
4725;DHT22;2376;53.544;10.226;2022-11-11T10:44:41;14.60;99.90
4725;DHT22;2376;53.544;10.226;2022-11-11T10:47:13;14.70;99.90
4725;DHT22;2376;53.544;10.226;2022-11-11T10:49:45;14.60;99.90
4725;DHT22;2376;53.544;10.226;2022-11-11T10:52:18;14.70;99.90
4725;DHT22;2376;53.544;10.226;2022-11-11T10:54:49;14.70;99.90
4725;DHT22;2376;53.544;10.226;2022-11-11T10:57:21;14.80;99.90
4725;DHT22;2376;53.544;10.226;2022-11-11T10:59:54;14.90;99.90
4725;DHT22;2376;53.544;10.226;2022-11-11T11:02:25;14.70;99.90
4725;DHT22;2376;53.544;10.226;2022-11-11T11:04:57;14.60;99.90
4725;DHT22;2376;53.544;10.226;2022-11-11T11:07:29;14.60;99.90
4725;DHT22;2376;53.544;10.226;2022-11-11T11:10:03;14.70;99.90
4725;DHT22;2376;53.544;10.226;2022-11-11T11:12:38;14.80;99.90
4725;DHT22;2376;53.544;10.226;2022-11-11T11:15:10;14.70;99.90
4725;DHT22;2376;53.544;10.226;2022-11-11T11:17:41;14.60;99.90
4725;DHT22;2376;53.544;10.226;2022-11-11T11:20:14;14.40;99.90
4725;DHT22;2376;53.544;10.226;2022-11-11T11:22:48;14.40;99.90
4725;DHT22;2376;53.544;10.226;2022-11-11T11:25:16;14.50;99.90
4725;DHT22;2376;53.544;10.226;2022-11-11T11:27:45;14.50;99.90
4725;DHT22;2376;53.544;10.226;2022-11-11T11:30:15;14.40;99.90
4725;DHT22;2376;53.544;10.226;2022-11-11T11:32:55;14.40;99.90
4725;DHT22;2376;53.544;10.226;2022-11-11T11:35:30;14.50;99.90
4725;DHT22;2376;53.544;10.226;2022-11-11T11:37:57;14.60;99.90
4725;DHT22;2376;53.544;10.226;2022-11-11T11:40:23;14.60;99.90
4725;DHT22;2376;53.544;10.226;2022-11-11T11:42:51;14.50;99.90
4725;DHT22;2376;53.544;10.226;2022-11-11T11:45:23;14.50;99.90
4725;DHT22;2376;53.544;10.226;2022-11-11T11:48:00;14.50;99.90
4725;DHT22;2376;53.544;10.226;2022-11-11T11:50:39;14.50;99.90
4725;DHT22;2376;53.544;10.226;2022-11-11T11:53:21;14.50;99.90
4725;DHT22;2376;53.544;10.226;2022-11-11T11:55:54;14.50;99.90
4725;DHT22;2376;53.544;10.226;2022-11-11T11:58:32;14.50;99.90
4725;DHT22;2376;53.544;10.226;2022-11-11T12:01:04;14.50;99.90
4725;DHT22;2376;53.544;10.226;2022-11-11T12:03:48;14.60;99.90
4725;DHT22;2376;53.544;10.226;2022-11-11T12:06:23;14.60;99.90
4725;DHT22;2376;53.544;10.226;2022-11-11T12:09:00;14.60;99.90
4725;DHT22;2376;53.544;10.226;2022-11-11T12:11:34;14.70;99.90
4725;DHT22;2376;53.544;10.226;2022-11-11T12:14:36;14.70;99.90
4725;DHT22;2376;53.544;10.226;2022-11-11T12:17:12;14.70;99.90
4725;DHT22;2376;53.544;10.226;2022-11-11T12:19:50;14.70;99.90
4725;DHT22;2376;53.544;10.226;2022-11-11T12:22:37;14.70;99.90
4725;DHT22;2376;53.544;10.226;2022-11-11T12:25:15;14.60;99.90
4725;DHT22;2376;53.544;10.226;2022-11-11T12:27:51;14.50;99.90
4725;DHT22;2376;53.544;10.226;2022-11-11T12:30:23;14.60;99.90
4725;DHT22;2376;53.544;10.226;2022-11-11T12:36:03;14.70;99.90
4725;DHT22;2376;53.544;10.226;2022-11-11T12:38:48;14.70;99.90
4725;DHT22;2376;53.544;10.226;2022-11-11T12:41:24;14.70;99.90
4725;DHT22;2376;53.544;10.226;2022-11-11T12:44:00;14.80;99.90
4725;DHT22;2376;53.544;10.226;2022-11-11T12:46:40;14.80;99.90
4725;DHT22;2376;53.544;10.226;2022-11-11T12:52:11;14.80;99.90
4725;DHT22;2376;53.544;10.226;2022-11-11T12:54:51;14.80;99.90
4725;DHT22;2376;53.544;10.226;2022-11-11T12:57:24;14.80;99.90
4725;DHT22;2376;53.544;10.226;2022-11-11T13:00:03;14.80;99.90
4725;DHT22;2376;53.544;10.226;2022-11-11T13:02:44;14.70;99.90
4725;DHT22;2376;53.544;10.226;2022-11-11T13:05:18;14.70;99.90
4725;DHT22;2376;53.544;10.226;2022-11-11T13:10:42;14.70;99.90
4725;DHT22;2376;53.544;10.226;2022-11-11T13:13:29;14.70;99.90
4725;DHT22;2376;53.544;10.226;2022-11-11T13:15:59;14.70;99.90
4725;DHT22;2376;53.544;10.226;2022-11-11T13:18:34;14.80;99.90
4725;DHT22;2376;53.544;10.226;2022-11-11T13:21:06;14.80;99.90
4725;DHT22;2376;53.544;10.226;2022-11-11T13:23:36;14.70;99.90
4725;DHT22;2376;53.544;10.226;2022-11-11T13:26:10;14.80;99.90
4725;DHT22;2376;53.544;10.226;2022-11-11T13:28:40;14.90;99.90
4725;DHT22;2376;53.544;10.226;2022-11-11T13:31:15;14.90;99.90
4725;DHT22;2376;53.544;10.226;2022-11-11T13:33:46;14.90;99.90
4725;DHT22;2376;53.544;10.226;2022-11-11T13:36:16;14.80;99.90
4725;DHT22;2376;53.544;10.226;2022-11-11T13:38:46;14.80;99.90
4725;DHT22;2376;53.544;10.226;2022-11-11T13:41:21;14.70;99.90
4725;DHT22;2376;53.544;10.226;2022-11-11T13:43:50;14.70;99.90
4725;DHT22;2376;53.544;10.226;2022-11-11T13:46:33;14.60;99.90
4725;DHT22;2376;53.544;10.226;2022-11-11T13:49:04;14.60;99.90
4725;DHT22;2376;53.544;10.226;2022-11-11T13:51:36;14.60;99.90
4725;DHT22;2376;53.544;10.226;2022-11-11T13:54:05;14.50;99.90
4725;DHT22;2376;53.544;10.226;2022-11-11T13:56:40;14.50;99.90
4725;DHT22;2376;53.544;10.226;2022-11-11T13:59:19;14.50;99.90
4725;DHT22;2376;53.544;10.226;2022-11-11T14:05:16;14.70;99.90
4725;DHT22;2376;53.544;10.226;2022-11-11T14:07:51;14.80;99.90
4725;DHT22;2376;53.544;10.226;2022-11-11T14:10:48;14.80;99.90
4725;DHT22;2376;53.544;10.226;2022-11-11T14:13:35;14.80;99.90
4725;DHT22;2376;53.544;10.226;2022-11-11T14:16:02;14.80;99.90
4725;DHT22;2376;53.544;10.226;2022-11-11T14:18:50;14.80;99.90
4725;DHT22;2376;53.544;10.226;2022-11-11T14:24:24;14.90;99.90
4725;DHT22;2376;53.544;10.226;2022-11-11T14:26:59;14.90;99.90
4725;DHT22;2376;53.544;10.226;2022-11-11T14:29:30;15.00;99.90
4725;DHT22;2376;53.544;10.226;2022-11-11T14:32:17;15.00;99.90
4725;DHT22;2376;53.544;10.226;2022-11-11T14:35:00;15.00;99.90
4725;DHT22;2376;53.544;10.226;2022-11-11T14:37:48;14.90;99.90
4725;DHT22;2376;53.544;10.226;2022-11-11T14:40:25;15.00;99.90
4725;DHT22;2376;53.544;10.226;2022-11-11T14:42:52;15.00;99.90
4725;DHT22;2376;53.544;10.226;2022-11-11T14:48:55;15.10;99.90
4725;DHT22;2376;53.544;10.226;2022-11-11T14:51:49;15.00;99.90
4725;DHT22;2376;53.544;10.226;2022-11-11T14:54:21;15.00;99.90
4725;DHT22;2376;53.544;10.226;2022-11-11T14:56:57;15.10;99.90
4725;DHT22;2376;53.544;10.226;2022-11-11T14:59:27;15.10;99.90
4725;DHT22;2376;53.544;10.226;2022-11-11T15:01:54;15.10;99.90
4725;DHT22;2376;53.544;10.226;2022-11-11T15:04:23;15.00;99.90
4725;DHT22;2376;53.544;10.226;2022-11-11T15:06:55;15.10;99.90
4725;DHT22;2376;53.544;10.226;2022-11-11T15:09:44;15.10;99.90
4725;DHT22;2376;53.544;10.226;2022-11-11T15:12:23;15.10;99.90
4725;DHT22;2376;53.544;10.226;2022-11-11T15:14:54;15.10;99.90
4725;DHT22;2376;53.544;10.226;2022-11-11T15:17:29;15.10;99.90
4725;DHT22;2376;53.544;10.226;2022-11-11T15:20:14;15.10;99.90
4725;DHT22;2376;53.544;10.226;2022-11-11T15:22:51;15.10;99.90
4725;DHT22;2376;53.544;10.226;2022-11-11T15:25:33;15.10;99.90
4725;DHT22;2376;53.544;10.226;2022-11-11T15:28:13;15.10;99.90
4725;DHT22;2376;53.544;10.226;2022-11-11T15:30:55;15.10;99.90
4725;DHT22;2376;53.544;10.226;2022-11-11T15:33:29;15.20;99.90
4725;DHT22;2376;53.544;10.226;2022-11-11T15:36:00;15.20;99.90
4725;DHT22;2376;53.544;10.226;2022-11-11T15:38:29;15.20;99.90
4725;DHT22;2376;53.544;10.226;2022-11-11T15:40:57;15.20;99.90
4725;DHT22;2376;53.544;10.226;2022-11-11T15:43:29;15.10;99.90
4725;DHT22;2376;53.544;10.226;2022-11-11T15:45:59;15.10;99.90
4725;DHT22;2376;53.544;10.226;2022-11-11T15:48:29;15.10;99.90
4725;DHT22;2376;53.544;10.226;2022-11-11T15:50:57;15.10;99.90
4725;DHT22;2376;53.544;10.226;2022-11-11T15:53:26;15.20;99.90
4725;DHT22;2376;53.544;10.226;2022-11-11T15:55:55;15.20;99.90
4725;DHT22;2376;53.544;10.226;2022-11-11T15:58:27;15.20;99.90
4725;DHT22;2376;53.544;10.226;2022-11-11T16:00:55;15.20;99.90
4725;DHT22;2376;53.544;10.226;2022-11-11T16:03:27;15.20;99.90
4725;DHT22;2376;53.544;10.226;2022-11-11T16:05:54;15.20;99.90
4725;DHT22;2376;53.544;10.226;2022-11-11T16:08:21;15.20;99.90
4725;DHT22;2376;53.544;10.226;2022-11-11T16:10:53;15.20;99.90
4725;DHT22;2376;53.544;10.226;2022-11-11T16:13:22;15.20;99.90
4725;DHT22;2376;53.544;10.226;2022-11-11T16:15:53;15.10;99.90
4725;DHT22;2376;53.544;10.226;2022-11-11T16:18:23;15.10;99.90
4725;DHT22;2376;53.544;10.226;2022-11-11T16:20:53;15.10;99.90
4725;DHT22;2376;53.544;10.226;2022-11-11T16:23:21;15.10;99.90
4725;DHT22;2376;53.544;10.226;2022-11-11T16:25:49;15.10;99.90
4725;DHT22;2376;53.544;10.226;2022-11-11T16:28:16;15.10;99.90
4725;DHT22;2376;53.544;10.226;2022-11-11T16:30:43;15.10;99.90
4725;DHT22;2376;53.544;10.226;2022-11-11T16:33:34;15.10;99.90